KOSU/OSU METAR and TAF weather

Enter ICAO airport designator
Station Type Date Time Source
KOSU METAR 2020/09/25 06:53 UTC NOAA

KOSU 250653Z AUTO 00000KT 10SM CLR 14/13 A3001 RMK AO2 SLP159 T01390128


Station Type Date Time Source
KOSU Decoded METAR 2020/09/25 06:53 UTC NOAA

OHIO STATE UNIVERSITY AIRPORT , OH, United States (KOSU) 40-05N 083-05W 280M
Sep 25, 2020 - 02:53 AM EDT / 2020.09.25 0653 UTC
Wind: Calm:0
Visibility: 10 mile(s):0
Sky conditions: clear
Temperature: 57.0 F (13.9 C)
Dew Point: 55.0 F (12.8 C)
Relative Humidity: 93%
Pressure (altimeter): 30.01 in. Hg (1016 hPa)
ob: KOSU 250653Z AUTO 00000KT 10SM CLR 14/13 A3001 RMK AO2 SLP159 T01390128
cycle: 7

Station Type Date Time Source
KOSU TAF UTC NOAA

Error!

Example: see airport list